Terminal Aerodrome Forecast
Issued by NWS

Home | Current Version | Previous Version | Text Only | Print | Product List | Glossary Off
Versions: 1 2 3 4 5 6 7 8 9 10 11 12 13 14 15 16 17 18 19 20 21 22 23 24 25 26 27 28 29

685
FTUS43 KABR 211725 AAA
TAFATY
TAF AMD
KATY 211725Z 2117/2218 16018G26KT P6SM SCT050
     FM220100 15007KT P6SM SKC
     FM221500 17013G23KT P6SM SCT100=

USA.gov is the U.S. government's official web portal to all federal, state and local government web resources and services.